createdAt,value
2022-12-28T00:00:57.165Z,6.57
2022-12-28T00:03:27.427Z,7.40
2022-12-28T00:05:56.965Z,4.00
2022-12-28T00:08:27.875Z,3.88
2022-12-28T00:11:08.392Z,4.63
2022-12-28T00:13:40.313Z,4.80
2022-12-28T00:16:11.691Z,5.82
2022-12-28T00:18:41.412Z,4.55
2022-12-28T00:21:10.726Z,4.78
2022-12-28T00:23:40.808Z,3.45
2022-12-28T00:26:11.678Z,3.75
2022-12-28T00:28:41.698Z,4.97
2022-12-28T00:31:12.261Z,5.57
2022-12-28T00:33:41.819Z,5.43
2022-12-28T00:36:17.843Z,8.27
2022-12-28T00:38:48.855Z,4.35
2022-12-28T00:41:18.424Z,4.43
2022-12-28T00:43:49.264Z,3.88
2022-12-28T00:46:18.829Z,5.53
2022-12-28T00:48:47.626Z,5.10
2022-12-28T00:51:18.968Z,4.57
2022-12-28T00:53:50.623Z,4.72
2022-12-28T00:56:21.868Z,6.65
2022-12-28T00:58:51.603Z,4.45
2022-12-28T01:01:23.365Z,5.15
2022-12-28T01:03:53.462Z,5.03
2022-12-28T01:06:22.854Z,4.15
2022-12-28T01:08:53.417Z,3.78
2022-12-28T01:11:23.931Z,5.00
2022-12-28T01:13:55.347Z,4.22
2022-12-28T01:16:27.624Z,6.07
2022-12-28T01:19:00.114Z,4.13
2022-12-28T01:21:32.402Z,4.97
2022-12-28T01:24:05.858Z,4.28
2022-12-28T01:26:36.835Z,4.40
2022-12-28T01:29:07.275Z,5.55
2022-12-28T01:31:37.734Z,6.57
2022-12-28T01:34:08.155Z,4.55
2022-12-28T01:36:38.313Z,7.40
2022-12-28T01:39:10.257Z,4.78
2022-12-28T01:41:41.509Z,5.25
2022-12-28T01:44:43.384Z,5.63
2022-12-28T01:47:17.085Z,5.22
2022-12-28T01:50:04.715Z,6.43
2022-12-28T01:52:40.778Z,7.18
2022-12-28T01:55:17.054Z,4.95
2022-12-28T01:57:56.028Z,4.40
2022-12-28T02:00:27.564Z,3.95
2022-12-28T02:03:01.240Z,4.60
2022-12-28T02:05:34.564Z,7.50
2022-12-28T02:08:10.104Z,5.20
2022-12-28T02:10:45.679Z,5.05
2022-12-28T02:13:18.381Z,4.25
2022-12-28T02:15:49.808Z,5.55
2022-12-28T02:18:23.325Z,4.95
2022-12-28T02:21:23.773Z,6.13
2022-12-28T02:24:30.055Z,5.60
2022-12-28T02:27:04.879Z,4.75
2022-12-28T02:30:03.032Z,5.57
2022-12-28T02:32:48.075Z,5.35
2022-12-28T02:35:27.398Z,6.47
2022-12-28T02:38:02.219Z,5.07
2022-12-28T02:40:38.899Z,4.57
2022-12-28T02:43:11.951Z,5.15
2022-12-28T02:46:02.178Z,4.28
2022-12-28T02:48:58.379Z,4.55
2022-12-28T02:51:50.055Z,5.05
2022-12-28T02:55:03.769Z,5.38
2022-12-28T02:57:48.104Z,6.55
2022-12-28T03:00:23.455Z,5.00
2022-12-28T03:03:05.048Z,6.13
2022-12-28T03:05:58.586Z,5.70
2022-12-28T03:08:37.500Z,5.05
2022-12-28T03:11:11.678Z,5.13
2022-12-28T03:13:51.520Z,4.45
2022-12-28T03:16:26.698Z,4.93
2022-12-28T03:19:30.478Z,6.35
2022-12-28T03:22:19.841Z,4.90
2022-12-28T03:25:07.683Z,6.10
2022-12-28T03:27:54.294Z,4.25
2022-12-28T03:30:44.583Z,3.90
2022-12-28T03:33:15.274Z,4.80
2022-12-28T03:35:50.719Z,3.60
2022-12-28T03:38:28.159Z,5.38
2022-12-28T03:41:06.810Z,5.95
2022-12-28T03:43:40.675Z,5.20
2022-12-28T03:46:17.757Z,4.07
2022-12-28T03:48:47.511Z,5.47
2022-12-28T03:51:22.585Z,4.00
2022-12-28T03:53:52.349Z,4.70
2022-12-28T03:56:25.589Z,4.18
2022-12-28T03:58:57.163Z,5.32
2022-12-28T04:01:32.828Z,6.57
2022-12-28T04:04:01.310Z,5.82
2022-12-28T04:06:31.048Z,5.00
2022-12-28T04:08:59.844Z,5.60
2022-12-28T04:11:31.086Z,4.22
2022-12-28T04:14:04.267Z,4.78
2022-12-28T04:16:38.862Z,3.65
2022-12-28T04:19:07.829Z,4.78
2022-12-28T04:21:37.674Z,4.90
2022-12-28T04:24:06.803Z,5.22
2022-12-28T04:26:35.051Z,4.03
2022-12-28T04:29:04.264Z,6.03
2022-12-28T04:31:32.785Z,4.80
2022-12-28T04:34:06.446Z,4.80
2022-12-28T04:36:40.351Z,4.85
2022-12-28T04:39:13.253Z,5.18
2022-12-28T04:41:41.581Z,4.63
2022-12-28T04:44:09.900Z,5.00
2022-12-28T04:46:38.298Z,4.40
2022-12-28T04:49:06.730Z,5.07
2022-12-28T04:51:35.293Z,3.38
2022-12-28T04:54:05.125Z,3.92
2022-12-28T04:56:33.472Z,3.85
2022-12-28T04:59:01.961Z,3.55
2022-12-28T05:01:30.445Z,4.30
2022-12-28T05:03:59.858Z,4.28
2022-12-28T05:06:29.388Z,4.15
2022-12-28T05:08:58.681Z,4.20
2022-12-28T05:11:30.255Z,3.90
2022-12-28T05:13:59.028Z,4.47
2022-12-28T05:16:29.443Z,4.05
2022-12-28T05:18:58.287Z,3.58
2022-12-28T05:21:28.600Z,3.03
2022-12-28T05:23:57.843Z,3.38
2022-12-28T05:26:29.838Z,4.43
2022-12-28T05:28:59.957Z,3.13
2022-12-28T05:31:28.597Z,3.30
2022-12-28T05:33:57.123Z,3.92
2022-12-28T05:36:27.131Z,4.35
2022-12-28T05:38:57.059Z,3.13
2022-12-28T05:41:29.014Z,4.13
2022-12-28T05:43:58.148Z,3.65
2022-12-28T05:46:30.230Z,4.22
2022-12-28T05:48:59.035Z,3.92
2022-12-28T05:51:29.260Z,4.63
2022-12-28T05:53:59.250Z,4.88
2022-12-28T05:56:30.394Z,4.07
2022-12-28T05:59:02.893Z,4.22
2022-12-28T06:01:32.930Z,4.88
2022-12-28T06:04:03.004Z,5.40
2022-12-28T06:06:33.463Z,4.35
2022-12-28T06:09:02.039Z,5.18
2022-12-28T06:11:34.843Z,3.75
2022-12-28T06:14:03.874Z,3.80
2022-12-28T06:16:34.572Z,3.92
2022-12-28T06:19:06.455Z,4.22
2022-12-28T06:21:37.016Z,4.75
2022-12-28T06:24:06.362Z,6.57
2022-12-28T06:26:37.851Z,3.72
2022-12-28T06:29:06.349Z,3.38
2022-12-28T06:31:36.492Z,3.42
2022-12-28T06:34:06.621Z,3.20
2022-12-28T06:36:37.243Z,4.03
2022-12-28T06:39:07.800Z,3.17
2022-12-28T06:41:37.957Z,3.80
2022-12-28T06:44:07.889Z,3.38
2022-12-28T06:46:36.735Z,4.28
2022-12-28T06:49:05.089Z,3.10
2022-12-28T06:51:36.232Z,3.70
2022-12-28T06:54:04.729Z,4.03
2022-12-28T06:56:35.230Z,4.28
2022-12-28T06:59:05.647Z,4.65
2022-12-28T07:01:36.203Z,5.28
2022-12-28T07:04:06.581Z,4.13
2022-12-28T07:06:36.887Z,4.13
2022-12-28T07:09:07.078Z,5.80
2022-12-28T07:11:35.827Z,4.15
2022-12-28T07:14:05.583Z,2.67
2022-12-28T07:19:01.418Z,2.97
2022-12-28T07:21:32.674Z,4.22
2022-12-28T07:24:01.312Z,3.30
2022-12-28T07:26:31.304Z,4.25
2022-12-28T07:29:02.026Z,4.00
2022-12-28T07:31:39.778Z,3.70
2022-12-28T07:34:12.340Z,4.65
2022-12-28T07:36:40.657Z,3.13
2022-12-28T07:39:09.020Z,3.65
2022-12-28T07:41:37.329Z,3.50
2022-12-28T07:44:07.226Z,3.55
2022-12-28T07:46:38.374Z,3.42
2022-12-28T07:49:07.743Z,3.20
2022-12-28T07:51:37.864Z,3.15
2022-12-28T07:54:06.593Z,2.70
2022-12-28T07:59:05.342Z,4.82
2022-12-28T08:01:37.314Z,3.25
2022-12-28T08:04:07.729Z,3.28
2022-12-28T08:06:38.327Z,2.83
2022-12-28T08:09:08.169Z,2.95
2022-12-28T08:11:38.266Z,3.25
2022-12-28T08:14:08.302Z,3.92
2022-12-28T08:16:39.523Z,4.53
2022-12-28T08:19:09.178Z,4.38
2022-12-28T08:21:39.270Z,3.25
2022-12-28T08:24:09.606Z,3.65
2022-12-28T08:26:39.673Z,2.97
2022-12-28T08:29:09.819Z,3.10
2022-12-28T08:31:41.811Z,3.85
2022-12-28T08:34:13.599Z,2.92
2022-12-28T08:36:42.621Z,2.63
2022-12-28T08:39:11.149Z,3.60
2022-12-28T08:41:39.484Z,3.60
2022-12-28T08:44:07.999Z,3.10
2022-12-28T08:46:37.381Z,2.42
2022-12-28T08:49:07.226Z,2.83
2022-12-28T08:51:39.553Z,3.65
2022-12-28T08:54:08.979Z,3.70
2022-12-28T08:56:39.241Z,2.90
2022-12-28T08:59:07.921Z,2.72
2022-12-28T09:01:44.188Z,3.13
2022-12-28T09:04:16.507Z,3.25
2022-12-28T09:06:45.112Z,3.33
2022-12-28T09:09:16.477Z,2.40
2022-12-28T09:11:45.455Z,2.75
2022-12-28T09:14:22.611Z,2.40
2022-12-28T09:16:53.027Z,2.05
2022-12-28T09:19:23.387Z,3.75
2022-12-28T09:21:53.736Z,3.72
2022-12-28T09:24:22.252Z,3.00
2022-12-28T09:26:52.833Z,3.75
2022-12-28T09:29:21.666Z,2.45
2022-12-28T09:31:49.934Z,2.47
2022-12-28T09:37:08.894Z,4.47
2022-12-28T09:39:37.674Z,3.15
2022-12-28T09:42:11.870Z,2.92
2022-12-28T09:44:46.825Z,2.70
2022-12-28T09:47:25.260Z,2.40
2022-12-28T09:50:04.813Z,2.85
2022-12-28T09:52:37.482Z,2.67
2022-12-28T09:55:11.857Z,2.90
2022-12-28T09:57:44.496Z,3.30
2022-12-28T10:00:18.402Z,2.50
2022-12-28T10:02:50.584Z,2.22
2022-12-28T10:05:21.319Z,3.90
2022-12-28T10:07:52.306Z,2.70
2022-12-28T10:10:24.224Z,3.25
2022-12-28T10:12:53.086Z,2.60
2022-12-28T10:15:25.134Z,2.83
2022-12-28T10:17:53.471Z,2.60
2022-12-28T10:20:23.752Z,2.03
2022-12-28T10:22:57.353Z,2.13
2022-12-28T10:25:27.556Z,3.55
2022-12-28T10:27:56.794Z,2.60
2022-12-28T10:30:27.686Z,2.88
2022-12-28T10:33:02.732Z,2.90
2022-12-28T10:35:38.689Z,3.92
2022-12-28T10:38:20.737Z,2.83
2022-12-28T10:40:58.101Z,2.05
2022-12-28T10:43:30.243Z,3.30
2022-12-28T10:46:00.423Z,1.73
2022-12-28T10:48:32.310Z,2.28
2022-12-28T10:51:11.011Z,2.55
2022-12-28T10:53:45.705Z,2.42
2022-12-28T10:58:52.284Z,2.85
2022-12-28T11:01:26.081Z,2.55
2022-12-28T11:04:07.246Z,4.57
2022-12-28T11:06:37.281Z,1.92
2022-12-28T11:09:18.900Z,3.47
2022-12-28T11:11:48.643Z,2.80
2022-12-28T11:14:24.240Z,2.45
2022-12-28T11:16:53.303Z,3.35
2022-12-28T11:19:23.249Z,3.83
2022-12-28T11:21:53.260Z,3.28
2022-12-28T11:24:27.894Z,2.80
2022-12-28T11:29:24.342Z,2.47
2022-12-28T11:32:00.799Z,2.60
2022-12-28T11:34:32.246Z,2.20
2022-12-28T11:37:00.976Z,2.97
2022-12-28T11:39:44.985Z,3.78
2022-12-28T11:42:39.661Z,2.63
2022-12-28T11:45:15.139Z,3.35
2022-12-28T11:47:43.739Z,2.63
2022-12-28T11:50:57.609Z,3.80
2022-12-28T11:53:51.801Z,3.80
2022-12-28T11:56:22.322Z,3.72
2022-12-28T11:59:21.162Z,3.38
2022-12-28T12:01:54.268Z,3.40
2022-12-28T12:04:42.156Z,2.30
2022-12-28T12:07:19.627Z,4.57
2022-12-28T12:09:49.585Z,3.28
2022-12-28T12:12:48.595Z,4.25
2022-12-28T12:15:20.698Z,4.63
2022-12-28T12:17:53.752Z,4.38
2022-12-28T12:20:36.995Z,3.25
2022-12-28T12:23:10.480Z,2.15
2022-12-28T12:25:41.959Z,3.63
2022-12-28T12:28:29.985Z,3.63
2022-12-28T12:30:58.639Z,4.10
2022-12-28T12:33:31.400Z,2.83
2022-12-28T12:36:10.881Z,2.80
2022-12-28T12:39:19.863Z,3.35
2022-12-28T12:41:59.665Z,3.78
2022-12-28T12:44:39.471Z,4.45
2022-12-28T12:47:21.591Z,2.80
2022-12-28T12:50:33.306Z,2.90
2022-12-28T12:53:07.263Z,3.38
2022-12-28T12:55:48.664Z,3.28
2022-12-28T12:58:24.492Z,4.22
2022-12-28T13:01:21.766Z,2.50
2022-12-28T13:03:50.923Z,2.58
2022-12-28T13:06:23.579Z,2.78
2022-12-28T13:08:59.041Z,2.50
2022-12-28T13:11:31.837Z,4.18
2022-12-28T13:14:00.239Z,2.35
2022-12-28T13:16:32.532Z,3.85
2022-12-28T13:19:02.780Z,2.85
2022-12-28T13:21:41.142Z,2.28
2022-12-28T13:24:20.612Z,2.83
2022-12-28T13:26:49.052Z,2.22
2022-12-28T13:29:20.592Z,2.40
2022-12-28T13:31:51.605Z,1.90
2022-12-28T13:34:23.502Z,3.13
2022-12-28T13:36:54.345Z,2.63
2022-12-28T13:39:23.540Z,2.40
2022-12-28T13:41:53.980Z,4.43
2022-12-28T13:44:42.476Z,4.38
2022-12-28T13:47:18.542Z,2.38
2022-12-28T13:49:55.235Z,2.95
2022-12-28T13:52:29.350Z,4.15
2022-12-28T13:55:01.489Z,4.15
2022-12-28T13:57:52.680Z,2.90
2022-12-28T14:00:23.078Z,2.75
2022-12-28T14:02:56.636Z,2.83
2022-12-28T14:05:28.573Z,2.78
2022-12-28T14:07:59.936Z,4.72
2022-12-28T14:10:29.458Z,3.45
2022-12-28T14:12:59.106Z,3.38
2022-12-28T14:15:27.831Z,2.55
2022-12-28T14:17:58.260Z,2.85
2022-12-28T14:20:26.617Z,3.35
2022-12-28T14:22:55.285Z,2.40
2022-12-28T14:25:24.956Z,2.47
2022-12-28T14:27:59.820Z,2.53
2022-12-28T14:30:31.651Z,3.75
2022-12-28T14:33:13.124Z,2.42
2022-12-28T14:35:51.158Z,3.25
2022-12-28T14:38:21.821Z,3.53
2022-12-28T14:40:54.531Z,2.88
2022-12-28T14:43:26.298Z,2.85
2022-12-28T14:48:45.605Z,4.40
2022-12-28T14:51:29.074Z,4.07
2022-12-28T14:54:18.424Z,3.30
2022-12-28T14:56:51.480Z,2.97
2022-12-28T14:59:24.702Z,3.08
2022-12-28T15:01:53.495Z,2.70
2022-12-28T15:04:49.887Z,3.70
2022-12-28T15:07:18.222Z,2.63
2022-12-28T15:09:47.172Z,2.97
2022-12-28T15:12:17.862Z,3.25
2022-12-28T15:14:46.448Z,4.65
2022-12-28T15:17:15.361Z,4.68
2022-12-28T15:19:45.349Z,3.72
2022-12-28T15:22:15.147Z,3.55
2022-12-28T15:24:45.363Z,3.30
2022-12-28T15:27:14.014Z,4.03
2022-12-28T15:32:30.493Z,3.38
2022-12-28T15:34:58.799Z,2.55
2022-12-28T15:37:28.501Z,3.10
2022-12-28T15:39:56.766Z,3.20
2022-12-28T15:42:25.044Z,4.35
2022-12-28T15:44:53.974Z,3.50
2022-12-28T15:47:23.217Z,3.33
2022-12-28T15:49:51.600Z,3.65
2022-12-28T15:52:19.997Z,4.72
2022-12-28T15:54:49.674Z,3.53
2022-12-28T15:57:18.045Z,3.15
2022-12-28T15:59:46.936Z,3.40
2022-12-28T16:02:15.426Z,2.65
2022-12-28T16:04:44.405Z,2.75
2022-12-28T16:07:12.981Z,4.75
2022-12-28T16:09:41.345Z,3.53
2022-12-28T16:12:11.039Z,3.50
2022-12-28T16:14:39.632Z,2.95
2022-12-28T16:17:07.936Z,3.70
2022-12-28T16:19:36.358Z,5.00
2022-12-28T16:22:04.689Z,3.47
2022-12-28T16:24:33.037Z,5.97
2022-12-28T16:27:01.311Z,3.10
2022-12-28T16:29:30.969Z,4.25
2022-12-28T16:32:00.720Z,3.80
2022-12-28T16:34:30.654Z,2.95
2022-12-28T16:36:59.731Z,3.45
2022-12-28T16:39:29.787Z,3.35
2022-12-28T16:41:58.831Z,2.92
2022-12-28T16:44:29.311Z,3.60
2022-12-28T16:46:59.643Z,3.33
2022-12-28T16:49:29.580Z,3.40
2022-12-28T16:51:58.465Z,4.80
2022-12-28T16:54:28.451Z,3.38
2022-12-28T16:56:56.977Z,4.25
2022-12-28T16:59:27.820Z,3.08
2022-12-28T17:01:57.772Z,3.88
2022-12-28T17:04:27.598Z,3.88
2022-12-28T17:06:55.997Z,3.45
2022-12-28T17:09:24.302Z,3.05
2022-12-28T17:11:52.605Z,3.00
2022-12-28T17:14:36.440Z,3.35
2022-12-28T17:17:06.214Z,3.13
2022-12-28T17:19:36.514Z,3.72
2022-12-28T17:22:05.390Z,3.97
2022-12-28T17:24:33.755Z,4.43
2022-12-28T17:27:07.787Z,2.72
2022-12-28T17:29:38.785Z,3.50
2022-12-28T17:32:07.633Z,4.00
2022-12-28T17:34:37.698Z,3.58
2022-12-28T17:37:06.056Z,3.40
2022-12-28T17:39:40.224Z,3.30
2022-12-28T17:42:10.148Z,3.15
2022-12-28T17:44:38.686Z,3.55
2022-12-28T17:47:07.111Z,3.15
2022-12-28T17:49:36.832Z,4.70
2022-12-28T17:52:05.343Z,3.40
2022-12-28T17:54:36.559Z,3.25
2022-12-28T17:57:04.941Z,2.67
2022-12-28T17:59:33.253Z,3.38
2022-12-28T18:02:04.987Z,3.53
2022-12-28T18:04:34.527Z,4.15
2022-12-28T18:07:04.339Z,5.40
2022-12-28T18:09:32.680Z,4.80
2022-12-28T18:12:01.420Z,3.65
2022-12-28T18:14:29.823Z,3.92
2022-12-28T18:16:58.227Z,4.55
2022-12-28T18:19:26.584Z,5.75
2022-12-28T18:21:54.945Z,3.92
2022-12-28T18:24:24.664Z,4.82
2022-12-28T18:26:53.090Z,3.92
2022-12-28T18:29:21.464Z,4.20
2022-12-28T18:31:49.797Z,3.95
2022-12-28T18:34:18.106Z,4.45
2022-12-28T18:36:46.413Z,3.63
2022-12-28T18:39:14.700Z,5.00
2022-12-28T18:41:44.360Z,4.40
2022-12-28T18:44:12.718Z,5.63
2022-12-28T18:46:41.466Z,4.20
2022-12-28T18:49:09.881Z,5.55
2022-12-28T18:51:38.212Z,4.93
2022-12-28T18:54:06.592Z,3.92
2022-12-28T18:56:34.891Z,3.63
2022-12-28T18:59:06.487Z,3.85
2022-12-28T19:04:25.676Z,4.10
2022-12-28T19:06:54.090Z,4.30
2022-12-28T19:09:22.453Z,5.15
2022-12-28T19:11:52.706Z,5.07
2022-12-28T19:14:22.477Z,3.80
2022-12-28T19:16:50.810Z,4.13
2022-12-28T19:19:20.403Z,5.05
2022-12-28T19:21:52.317Z,4.63
2022-12-28T19:26:53.657Z,4.65
2022-12-28T19:29:23.809Z,4.20
2022-12-28T19:31:52.391Z,4.78
2022-12-28T19:34:20.724Z,4.22
2022-12-28T19:36:49.060Z,5.50
2022-12-28T19:39:17.371Z,4.30
2022-12-28T19:41:45.727Z,5.15
2022-12-28T19:44:14.539Z,4.88
2022-12-28T19:46:44.336Z,4.22
2022-12-28T19:49:12.724Z,5.15
2022-12-28T19:51:42.883Z,3.60
2022-12-28T19:54:12.445Z,5.10
2022-12-28T19:56:40.761Z,4.53
2022-12-28T19:59:09.224Z,4.00
2022-12-28T20:01:39.088Z,4.60
2022-12-28T20:04:16.075Z,3.78
2022-12-28T20:06:45.337Z,4.32
2022-12-28T20:09:14.650Z,4.80
2022-12-28T20:11:44.761Z,3.88
2022-12-28T20:14:14.861Z,3.95
2022-12-28T20:16:44.196Z,4.28
2022-12-28T20:19:14.319Z,3.30
2022-12-28T20:21:42.675Z,3.45
2022-12-28T20:24:13.090Z,4.13
2022-12-28T20:26:41.494Z,3.70
2022-12-28T20:29:09.861Z,3.58
2022-12-28T20:31:38.306Z,3.15
2022-12-28T20:34:06.734Z,3.45
2022-12-28T20:36:36.940Z,3.45
2022-12-28T20:39:05.451Z,3.40
2022-12-28T20:41:52.127Z,3.53
2022-12-28T20:44:23.867Z,3.60
2022-12-28T20:46:52.835Z,3.85
2022-12-28T20:49:22.344Z,3.72
2022-12-28T20:51:55.157Z,3.88
2022-12-28T20:54:23.917Z,3.38
2022-12-28T20:56:55.942Z,4.07
2022-12-28T20:59:25.666Z,4.30
2022-12-28T21:01:54.669Z,4.50
2022-12-28T21:04:24.801Z,4.30
2022-12-28T21:06:55.315Z,4.95
2022-12-28T21:09:23.880Z,3.75
2022-12-28T21:11:52.217Z,4.22
2022-12-28T21:14:20.663Z,3.60
2022-12-28T21:16:49.343Z,4.10
2022-12-28T21:19:18.012Z,3.92
2022-12-28T21:21:47.333Z,3.72
2022-12-28T21:24:17.042Z,3.92
2022-12-28T21:26:45.365Z,4.80
2022-12-28T21:29:13.690Z,4.63
2022-12-28T21:31:42.085Z,4.90
2022-12-28T21:34:10.438Z,4.57
2022-12-28T21:36:38.857Z,5.40
2022-12-28T21:39:07.198Z,4.88
2022-12-28T21:41:52.746Z,5.35
2022-12-28T21:44:22.959Z,5.07
2022-12-28T21:46:51.924Z,5.50
2022-12-28T21:49:21.276Z,5.78
2022-12-28T21:51:50.062Z,4.72
2022-12-28T21:54:21.100Z,5.70
2022-12-28T21:56:53.599Z,5.03
2022-12-28T21:59:23.360Z,3.78
2022-12-28T22:02:18.068Z,3.75
2022-12-28T22:05:04.066Z,4.18
2022-12-28T22:07:32.654Z,3.78
2022-12-28T22:10:18.311Z,3.92
2022-12-28T22:12:47.936Z,3.92
2022-12-28T22:15:36.201Z,3.90
2022-12-28T22:18:06.520Z,4.25
2022-12-28T22:20:35.850Z,4.30
2022-12-28T22:23:04.787Z,4.40
2022-12-28T22:25:33.446Z,4.32
2022-12-28T22:28:03.768Z,4.65
2022-12-28T22:30:33.916Z,4.13
2022-12-28T22:33:02.239Z,4.05
2022-12-28T22:35:30.662Z,3.35
2022-12-28T22:37:58.988Z,3.00
2022-12-28T22:40:27.599Z,4.07
2022-12-28T22:42:55.967Z,3.13
2022-12-28T22:45:25.901Z,3.35
2022-12-28T22:47:59.183Z,5.65
2022-12-28T22:50:28.545Z,3.53
2022-12-28T22:52:57.108Z,2.80
2022-12-28T22:55:25.408Z,3.15
2022-12-28T22:57:53.727Z,3.00
2022-12-28T23:00:22.343Z,2.88
2022-12-28T23:02:52.168Z,2.90
2022-12-28T23:05:20.575Z,2.22
2022-12-28T23:07:48.837Z,2.53
2022-12-28T23:10:17.206Z,2.53
2022-12-28T23:12:45.666Z,2.40
2022-12-28T23:15:15.749Z,3.08
2022-12-28T23:17:44.094Z,2.78
2022-12-28T23:20:31.421Z,2.78
2022-12-28T23:23:17.142Z,3.10
2022-12-28T23:26:02.796Z,1.92
2022-12-28T23:28:32.310Z,2.28
2022-12-28T23:31:00.757Z,2.33
2022-12-28T23:33:29.165Z,2.63
2022-12-28T23:36:02.367Z,2.55
2022-12-28T23:38:32.188Z,3.33
2022-12-28T23:41:22.572Z,2.75
2022-12-28T23:43:50.881Z,2.85
2022-12-28T23:46:19.233Z,2.78
2022-12-28T23:48:47.540Z,2.38
2022-12-28T23:51:18.011Z,2.22
2022-12-28T23:53:46.485Z,3.15
2022-12-28T23:56:14.917Z,2.55
2022-12-28T23:58:43.234Z,3.00
